Fulda, Germany

7:57 PM CEST on July 30, 2016 (GMT +0200)
Saturnstraße | | Change Station

Elev 948 ft 50.55 °N, 9.63 °E | Updated 5 minutes ago

Mostly Cloudy
Mostly Cloudy
75.9 °F
Feels Like 78 °F
N
0.6
Wind Variable Wind from West
Gusts 2.5 mph

Today
High -- | Low -- °F
--% Chance of Precip.
Yesterday
High -- | Low -- °F
Precip. -- in
Pressure 29.89 in
Visibility 6.2 miles
Clouds Few 4800 ft
Scattered Clouds 6000 ft
Mostly Cloudy 20000 ft
Heat Index 78 °F
Dew Point 60 °F
Humidity 57%
Rainfall in
Snow Depth Not available.
5:46 AM 9:08 PM
Waning Crescent, 12% visible
METAR EDDF 301750Z VRB08KT 9999 FEW048 SCT060 BKN200 24/13 Q1012 NOSIG
Pressure 29.89 in
Visibility 6.2 miles
Clouds Few 4800 ft
Scattered Clouds 6000 ft
Mostly Cloudy 20000 ft
Heat Index 78 °F
Dew Point 60 °F
Humidity 57%
Rainfall in
Snow Depth Not available.
5:46 AM 9:08 PM
Waning Crescent, 12% visible
METAR EDDF 301750Z VRB08KT 9999 FEW048 SCT060 BKN200 24/13 Q1012 NOSIG

10-Day Weather Forecast

×

Almanac

Astronomy

Jul. 30, 2016 Rise Set
Actual Time
Civil Twilight
Nautical Twilight
Astronomical Twilight
Moon
Length of Visible Light
Length of Day
Tomorrow will be .
, % of the Moon is Illuminated

Today's Extremes

Country Highs Country Lows

Community

WunderPhotos

Upload Photos

1,928,600 photos uploaded!

WunderBlog® & News

Nearby

Air Quality

  Air Quality AQ Index Pollutant
Not available.

Snow Depth

Station Depth Elevation

Earthquake Activity

City Distance Mag. Time & Date
Minimum magnitude displayed is 2.5.

Coastal Water Temperatures

Place Temperature

Stations

Nearby Weather Stations

Station Location Temp. Windchill Dew Point Humidity Wind Precip. Elev Updated Type